sensor_id;sensor_type;location;lat;lon;timestamp;P1;durP1;ratioP1;P2;durP2;ratioP2
62071;SDS011;48031;48.542;13.232;2023-02-28T00:03:40;5.45;;;3.17;;
62071;SDS011;48031;48.542;13.232;2023-02-28T00:07:42;3.10;;;2.58;;
62071;SDS011;48031;48.542;13.232;2023-02-28T00:11:44;5.68;;;3.17;;
62071;SDS011;48031;48.542;13.232;2023-02-28T00:20:27;4.70;;;2.85;;
62071;SDS011;48031;48.542;13.232;2023-02-28T00:24:29;7.95;;;3.80;;
62071;SDS011;48031;48.542;13.232;2023-02-28T00:33:53;7.82;;;3.53;;
62071;SDS011;48031;48.542;13.232;2023-02-28T00:37:55;6.95;;;4.38;;
62071;SDS011;48031;48.542;13.232;2023-02-28T00:41:56;10.23;;;4.47;;
62071;SDS011;48031;48.542;13.232;2023-02-28T00:45:58;7.20;;;3.72;;
62071;SDS011;48031;48.542;13.232;2023-02-28T00:50:00;7.13;;;3.70;;
62071;SDS011;48031;48.542;13.232;2023-02-28T00:54:02;8.30;;;4.13;;
62071;SDS011;48031;48.542;13.232;2023-02-28T00:58:04;6.82;;;3.97;;
62071;SDS011;48031;48.542;13.232;2023-02-28T01:02:06;6.78;;;3.78;;
62071;SDS011;48031;48.542;13.232;2023-02-28T01:06:10;6.32;;;3.80;;
62071;SDS011;48031;48.542;13.232;2023-02-28T01:10:12;7.72;;;4.10;;
62071;SDS011;48031;48.542;13.232;2023-02-28T01:14:15;6.88;;;3.97;;
62071;SDS011;48031;48.542;13.232;2023-02-28T01:18:20;9.63;;;4.65;;
62071;SDS011;48031;48.542;13.232;2023-02-28T01:22:22;8.57;;;4.20;;
62071;SDS011;48031;48.542;13.232;2023-02-28T01:26:24;9.57;;;4.70;;
62071;SDS011;48031;48.542;13.232;2023-02-28T01:30:27;8.80;;;4.90;;
62071;SDS011;48031;48.542;13.232;2023-02-28T01:34:29;8.75;;;4.82;;
62071;SDS011;48031;48.542;13.232;2023-02-28T01:38:31;9.75;;;4.78;;
62071;SDS011;48031;48.542;13.232;2023-02-28T01:42:33;12.00;;;4.95;;
62071;SDS011;48031;48.542;13.232;2023-02-28T01:46:35;7.18;;;4.07;;
62071;SDS011;48031;48.542;13.232;2023-02-28T01:50:38;8.82;;;4.20;;
62071;SDS011;48031;48.542;13.232;2023-02-28T01:54:42;7.35;;;3.97;;
62071;SDS011;48031;48.542;13.232;2023-02-28T01:58:47;6.88;;;3.92;;
62071;SDS011;48031;48.542;13.232;2023-02-28T02:02:51;11.02;;;4.97;;
62071;SDS011;48031;48.542;13.232;2023-02-28T02:06:56;10.65;;;4.88;;
62071;SDS011;48031;48.542;13.232;2023-02-28T02:11:00;8.38;;;4.47;;
62071;SDS011;48031;48.542;13.232;2023-02-28T02:15:12;7.50;;;3.72;;
62071;SDS011;48031;48.542;13.232;2023-02-28T02:19:44;8.57;;;4.60;;
62071;SDS011;48031;48.542;13.232;2023-02-28T02:24:18;9.40;;;4.40;;
62071;SDS011;48031;48.542;13.232;2023-02-28T02:28:43;7.13;;;4.00;;
62071;SDS011;48031;48.542;13.232;2023-02-28T02:37:14;10.10;;;4.78;;
62071;SDS011;48031;48.542;13.232;2023-02-28T02:41:28;9.00;;;4.50;;
62071;SDS011;48031;48.542;13.232;2023-02-28T02:45:41;9.00;;;4.65;;
62071;SDS011;48031;48.542;13.232;2023-02-28T02:49:48;10.88;;;4.57;;
62071;SDS011;48031;48.542;13.232;2023-02-28T02:54:07;7.38;;;4.22;;
62071;SDS011;48031;48.542;13.232;2023-02-28T02:58:14;9.35;;;4.72;;
62071;SDS011;48031;48.542;13.232;2023-02-28T03:02:19;8.38;;;4.68;;
62071;SDS011;48031;48.542;13.232;2023-02-28T03:06:23;10.43;;;4.25;;
62071;SDS011;48031;48.542;13.232;2023-02-28T03:11:00;9.68;;;4.70;;
62071;SDS011;48031;48.542;13.232;2023-02-28T03:15:14;9.68;;;4.93;;
62071;SDS011;48031;48.542;13.232;2023-02-28T03:28:13;6.82;;;4.13;;
62071;SDS011;48031;48.542;13.232;2023-02-28T03:32:22;8.48;;;4.50;;
62071;SDS011;48031;48.542;13.232;2023-02-28T03:36:29;10.05;;;5.07;;
62071;SDS011;48031;48.542;13.232;2023-02-28T03:40:33;9.40;;;5.22;;
62071;SDS011;48031;48.542;13.232;2023-02-28T03:44:39;11.80;;;5.50;;
62071;SDS011;48031;48.542;13.232;2023-02-28T03:48:51;10.55;;;4.75;;
62071;SDS011;48031;48.542;13.232;2023-02-28T03:53:00;8.48;;;4.70;;
62071;SDS011;48031;48.542;13.232;2023-02-28T03:57:18;8.57;;;4.75;;
62071;SDS011;48031;48.542;13.232;2023-02-28T04:05:53;10.82;;;4.70;;
62071;SDS011;48031;48.542;13.232;2023-02-28T04:09:57;6.00;;;3.97;;
62071;SDS011;48031;48.542;13.232;2023-02-28T04:14:00;9.20;;;4.72;;
62071;SDS011;48031;48.542;13.232;2023-02-28T04:18:03;13.80;;;4.97;;
62071;SDS011;48031;48.542;13.232;2023-02-28T04:22:06;7.55;;;3.83;;
62071;SDS011;48031;48.542;13.232;2023-02-28T04:26:10;10.63;;;4.47;;
62071;SDS011;48031;48.542;13.232;2023-02-28T04:30:12;10.93;;;5.00;;
62071;SDS011;48031;48.542;13.232;2023-02-28T04:34:14;10.32;;;4.75;;
62071;SDS011;48031;48.542;13.232;2023-02-28T04:38:17;7.45;;;4.50;;
62071;SDS011;48031;48.542;13.232;2023-02-28T04:42:19;8.05;;;4.38;;
62071;SDS011;48031;48.542;13.232;2023-02-28T04:46:21;9.38;;;4.65;;
62071;SDS011;48031;48.542;13.232;2023-02-28T04:50:23;6.10;;;3.38;;
62071;SDS011;48031;48.542;13.232;2023-02-28T04:54:26;8.48;;;3.95;;
62071;SDS011;48031;48.542;13.232;2023-02-28T04:58:28;6.35;;;3.63;;
62071;SDS011;48031;48.542;13.232;2023-02-28T05:02:33;4.57;;;2.95;;
62071;SDS011;48031;48.542;13.232;2023-02-28T05:06:36;6.57;;;3.40;;
62071;SDS011;48031;48.542;13.232;2023-02-28T05:10:38;9.50;;;4.55;;
62071;SDS011;48031;48.542;13.232;2023-02-28T05:14:40;5.45;;;3.63;;
62071;SDS011;48031;48.542;13.232;2023-02-28T05:18:43;8.43;;;4.45;;
62071;SDS011;48031;48.542;13.232;2023-02-28T05:22:45;10.32;;;4.53;;
62071;SDS011;48031;48.542;13.232;2023-02-28T05:26:48;12.63;;;5.32;;
62071;SDS011;48031;48.542;13.232;2023-02-28T05:30:53;6.00;;;3.65;;
62071;SDS011;48031;48.542;13.232;2023-02-28T05:34:55;6.93;;;3.67;;
62071;SDS011;48031;48.542;13.232;2023-02-28T05:38:57;10.05;;;4.70;;
62071;SDS011;48031;48.542;13.232;2023-02-28T05:42:59;9.73;;;4.40;;
62071;SDS011;48031;48.542;13.232;2023-02-28T05:47:02;7.18;;;3.97;;
62071;SDS011;48031;48.542;13.232;2023-02-28T05:51:05;9.52;;;4.13;;
62071;SDS011;48031;48.542;13.232;2023-02-28T05:55:08;5.63;;;3.40;;
62071;SDS011;48031;48.542;13.232;2023-02-28T05:59:11;7.15;;;3.97;;
62071;SDS011;48031;48.542;13.232;2023-02-28T06:03:14;5.55;;;3.20;;
62071;SDS011;48031;48.542;13.232;2023-02-28T06:07:16;9.02;;;4.50;;
62071;SDS011;48031;48.542;13.232;2023-02-28T06:11:19;7.88;;;4.90;;
62071;SDS011;48031;48.542;13.232;2023-02-28T06:15:22;7.60;;;4.72;;
62071;SDS011;48031;48.542;13.232;2023-02-28T06:19:24;9.23;;;4.47;;
62071;SDS011;48031;48.542;13.232;2023-02-28T06:23:29;11.40;;;4.88;;
62071;SDS011;48031;48.542;13.232;2023-02-28T06:27:32;9.85;;;4.72;;
62071;SDS011;48031;48.542;13.232;2023-02-28T06:31:34;10.40;;;4.40;;
62071;SDS011;48031;48.542;13.232;2023-02-28T06:35:37;10.50;;;5.15;;
62071;SDS011;48031;48.542;13.232;2023-02-28T06:39:40;8.55;;;4.13;;
62071;SDS011;48031;48.542;13.232;2023-02-28T06:43:42;5.85;;;3.70;;
62071;SDS011;48031;48.542;13.232;2023-02-28T06:47:44;7.63;;;4.03;;
62071;SDS011;48031;48.542;13.232;2023-02-28T06:51:46;7.53;;;3.85;;
62071;SDS011;48031;48.542;13.232;2023-02-28T06:55:49;7.18;;;3.60;;
62071;SDS011;48031;48.542;13.232;2023-02-28T06:59:51;8.02;;;4.25;;
62071;SDS011;48031;48.542;13.232;2023-02-28T07:03:53;11.27;;;4.90;;
62071;SDS011;48031;48.542;13.232;2023-02-28T07:07:56;8.30;;;4.07;;
62071;SDS011;48031;48.542;13.232;2023-02-28T07:11:59;8.85;;;4.57;;
62071;SDS011;48031;48.542;13.232;2023-02-28T07:16:05;9.68;;;5.18;;
62071;SDS011;48031;48.542;13.232;2023-02-28T07:20:10;10.63;;;5.45;;
62071;SDS011;48031;48.542;13.232;2023-02-28T07:24:13;6.82;;;4.03;;
62071;SDS011;48031;48.542;13.232;2023-02-28T07:28:17;9.90;;;5.07;;
62071;SDS011;48031;48.542;13.232;2023-02-28T07:32:20;8.60;;;5.03;;
62071;SDS011;48031;48.542;13.232;2023-02-28T07:36:22;8.48;;;4.95;;
62071;SDS011;48031;48.542;13.232;2023-02-28T07:40:25;8.43;;;4.72;;
62071;SDS011;48031;48.542;13.232;2023-02-28T07:44:27;8.13;;;4.53;;
62071;SDS011;48031;48.542;13.232;2023-02-28T07:48:29;9.73;;;4.63;;
62071;SDS011;48031;48.542;13.232;2023-02-28T07:52:31;10.38;;;5.20;;
62071;SDS011;48031;48.542;13.232;2023-02-28T07:56:34;11.02;;;5.75;;
62071;SDS011;48031;48.542;13.232;2023-02-28T08:00:36;10.90;;;5.60;;
62071;SDS011;48031;48.542;13.232;2023-02-28T08:04:38;13.27;;;5.80;;
62071;SDS011;48031;48.542;13.232;2023-02-28T08:08:40;11.00;;;5.35;;
62071;SDS011;48031;48.542;13.232;2023-02-28T08:12:44;8.38;;;4.50;;
62071;SDS011;48031;48.542;13.232;2023-02-28T08:16:46;13.32;;;5.85;;
62071;SDS011;48031;48.542;13.232;2023-02-28T08:20:48;13.38;;;6.95;;
62071;SDS011;48031;48.542;13.232;2023-02-28T08:24:50;10.68;;;5.43;;
62071;SDS011;48031;48.542;13.232;2023-02-28T08:28:52;15.07;;;6.95;;
62071;SDS011;48031;48.542;13.232;2023-02-28T08:32:57;11.73;;;6.10;;
62071;SDS011;48031;48.542;13.232;2023-02-28T08:37:00;11.88;;;6.25;;
62071;SDS011;48031;48.542;13.232;2023-02-28T08:41:06;11.85;;;6.13;;
62071;SDS011;48031;48.542;13.232;2023-02-28T08:45:12;13.45;;;6.30;;
62071;SDS011;48031;48.542;13.232;2023-02-28T08:49:14;11.48;;;5.32;;
62071;SDS011;48031;48.542;13.232;2023-02-28T08:53:17;8.85;;;5.35;;
62071;SDS011;48031;48.542;13.232;2023-02-28T08:57:19;8.73;;;5.22;;
62071;SDS011;48031;48.542;13.232;2023-02-28T09:01:22;9.23;;;5.20;;
62071;SDS011;48031;48.542;13.232;2023-02-28T09:05:30;11.48;;;6.25;;
62071;SDS011;48031;48.542;13.232;2023-02-28T09:09:32;16.95;;;7.68;;
62071;SDS011;48031;48.542;13.232;2023-02-28T09:13:34;10.02;;;5.82;;
62071;SDS011;48031;48.542;13.232;2023-02-28T09:17:36;10.65;;;5.53;;
62071;SDS011;48031;48.542;13.232;2023-02-28T09:21:38;9.88;;;6.05;;
62071;SDS011;48031;48.542;13.232;2023-02-28T09:25:48;10.95;;;6.10;;
62071;SDS011;48031;48.542;13.232;2023-02-28T09:29:55;7.97;;;4.88;;
62071;SDS011;48031;48.542;13.232;2023-02-28T09:33:57;10.48;;;5.45;;
62071;SDS011;48031;48.542;13.232;2023-02-28T09:38:00;11.32;;;5.72;;
62071;SDS011;48031;48.542;13.232;2023-02-28T09:42:04;9.65;;;5.72;;
62071;SDS011;48031;48.542;13.232;2023-02-28T09:46:11;9.43;;;5.30;;
62071;SDS011;48031;48.542;13.232;2023-02-28T09:54:24;8.45;;;5.22;;
62071;SDS011;48031;48.542;13.232;2023-02-28T09:58:33;6.57;;;4.38;;
62071;SDS011;48031;48.542;13.232;2023-02-28T10:07:17;9.35;;;6.05;;
62071;SDS011;48031;48.542;13.232;2023-02-28T10:11:21;8.98;;;5.57;;
62071;SDS011;48031;48.542;13.232;2023-02-28T10:15:26;7.70;;;5.65;;
62071;SDS011;48031;48.542;13.232;2023-02-28T10:23:36;9.35;;;5.40;;
62071;SDS011;48031;48.542;13.232;2023-02-28T10:27:38;9.40;;;6.05;;
62071;SDS011;48031;48.542;13.232;2023-02-28T10:31:40;9.02;;;6.05;;
62071;SDS011;48031;48.542;13.232;2023-02-28T10:35:42;8.60;;;6.13;;
62071;SDS011;48031;48.542;13.232;2023-02-28T10:39:44;8.57;;;5.55;;
62071;SDS011;48031;48.542;13.232;2023-02-28T10:43:47;11.65;;;7.28;;
62071;SDS011;48031;48.542;13.232;2023-02-28T10:47:51;10.48;;;7.15;;
62071;SDS011;48031;48.542;13.232;2023-02-28T10:51:56;8.65;;;6.18;;
62071;SDS011;48031;48.542;13.232;2023-02-28T10:56:14;11.13;;;7.53;;
62071;SDS011;48031;48.542;13.232;2023-02-28T11:00:19;10.50;;;6.60;;
62071;SDS011;48031;48.542;13.232;2023-02-28T11:08:30;7.50;;;5.43;;
62071;SDS011;48031;48.542;13.232;2023-02-28T11:12:34;8.50;;;6.45;;
62071;SDS011;48031;48.542;13.232;2023-02-28T11:16:52;7.88;;;6.03;;
62071;SDS011;48031;48.542;13.232;2023-02-28T11:20:56;11.73;;;8.10;;
62071;SDS011;48031;48.542;13.232;2023-02-28T11:25:01;10.02;;;7.53;;
62071;SDS011;48031;48.542;13.232;2023-02-28T11:29:16;9.80;;;7.13;;
62071;SDS011;48031;48.542;13.232;2023-02-28T11:33:30;10.73;;;7.13;;
62071;SDS011;48031;48.542;13.232;2023-02-28T11:37:32;9.33;;;7.60;;
62071;SDS011;48031;48.542;13.232;2023-02-28T11:50:42;11.50;;;8.02;;
62071;SDS011;48031;48.542;13.232;2023-02-28T12:16:25;11.18;;;8.15;;
62071;SDS011;48031;48.542;13.232;2023-02-28T12:33:26;9.18;;;7.60;;
62071;SDS011;48031;48.542;13.232;2023-02-28T12:41:48;8.75;;;7.43;;
62071;SDS011;48031;48.542;13.232;2023-02-28T12:50:19;10.60;;;8.32;;
62071;SDS011;48031;48.542;13.232;2023-02-28T12:54:24;10.48;;;8.23;;
62071;SDS011;48031;48.542;13.232;2023-02-28T13:03:06;10.55;;;8.68;;
62071;SDS011;48031;48.542;13.232;2023-02-28T13:11:48;12.88;;;9.73;;
62071;SDS011;48031;48.542;13.232;2023-02-28T13:15:59;9.52;;;7.93;;
62071;SDS011;48031;48.542;13.232;2023-02-28T13:20:16;11.68;;;9.00;;
62071;SDS011;48031;48.542;13.232;2023-02-28T13:24:37;9.82;;;7.75;;
62071;SDS011;48031;48.542;13.232;2023-02-28T13:33:05;10.85;;;9.40;;
62071;SDS011;48031;48.542;13.232;2023-02-28T13:37:32;11.52;;;9.85;;
62071;SDS011;48031;48.542;13.232;2023-02-28T13:41:42;13.07;;;10.43;;
62071;SDS011;48031;48.542;13.232;2023-02-28T13:46:05;13.65;;;9.93;;
62071;SDS011;48031;48.542;13.232;2023-02-28T13:58:51;10.73;;;9.32;;
62071;SDS011;48031;48.542;13.232;2023-02-28T14:07:33;11.38;;;10.00;;
62071;SDS011;48031;48.542;13.232;2023-02-28T14:11:43;10.75;;;8.77;;
62071;SDS011;48031;48.542;13.232;2023-02-28T14:19:49;8.70;;;7.45;;
62071;SDS011;48031;48.542;13.232;2023-02-28T14:33:05;15.60;;;10.13;;
62071;SDS011;48031;48.542;13.232;2023-02-28T14:37:16;11.27;;;8.32;;
62071;SDS011;48031;48.542;13.232;2023-02-28T14:45:33;9.98;;;6.63;;
62071;SDS011;48031;48.542;13.232;2023-02-28T14:49:42;10.00;;;7.07;;
62071;SDS011;48031;48.542;13.232;2023-02-28T14:53:51;14.00;;;9.07;;
62071;SDS011;48031;48.542;13.232;2023-02-28T14:58:03;14.30;;;8.70;;
62071;SDS011;48031;48.542;13.232;2023-02-28T15:06:19;13.30;;;7.07;;
62071;SDS011;48031;48.542;13.232;2023-02-28T15:10:24;14.52;;;8.32;;
62071;SDS011;48031;48.542;13.232;2023-02-28T15:14:27;14.38;;;8.32;;
62071;SDS011;48031;48.542;13.232;2023-02-28T15:18:33;18.52;;;9.80;;
62071;SDS011;48031;48.542;13.232;2023-02-28T15:22:42;13.20;;;7.60;;
62071;SDS011;48031;48.542;13.232;2023-02-28T15:26:47;14.02;;;8.10;;
62071;SDS011;48031;48.542;13.232;2023-02-28T15:31:01;13.68;;;7.07;;
62071;SDS011;48031;48.542;13.232;2023-02-28T15:39:26;16.15;;;8.15;;
62071;SDS011;48031;48.542;13.232;2023-02-28T15:43:33;15.77;;;8.50;;
62071;SDS011;48031;48.542;13.232;2023-02-28T15:47:37;12.05;;;7.38;;
62071;SDS011;48031;48.542;13.232;2023-02-28T15:51:39;14.23;;;8.57;;
62071;SDS011;48031;48.542;13.232;2023-02-28T15:55:40;14.82;;;8.75;;
62071;SDS011;48031;48.542;13.232;2023-02-28T15:59:48;14.18;;;7.97;;
62071;SDS011;48031;48.542;13.232;2023-02-28T16:03:57;16.95;;;9.38;;
62071;SDS011;48031;48.542;13.232;2023-02-28T16:08:14;14.52;;;8.38;;
62071;SDS011;48031;48.542;13.232;2023-02-28T16:12:16;12.25;;;6.95;;
62071;SDS011;48031;48.542;13.232;2023-02-28T16:16:19;16.30;;;8.43;;
62071;SDS011;48031;48.542;13.232;2023-02-28T16:20:28;14.73;;;7.95;;
62071;SDS011;48031;48.542;13.232;2023-02-28T16:24:31;13.15;;;7.40;;
62071;SDS011;48031;48.542;13.232;2023-02-28T16:28:33;13.10;;;7.75;;
62071;SDS011;48031;48.542;13.232;2023-02-28T16:32:37;16.85;;;8.20;;
62071;SDS011;48031;48.542;13.232;2023-02-28T16:36:39;14.95;;;7.20;;
62071;SDS011;48031;48.542;13.232;2023-02-28T16:40:42;15.57;;;8.98;;
62071;SDS011;48031;48.542;13.232;2023-02-28T16:44:44;16.85;;;8.98;;
62071;SDS011;48031;48.542;13.232;2023-02-28T16:48:47;15.20;;;8.00;;
62071;SDS011;48031;48.542;13.232;2023-02-28T16:52:53;14.32;;;8.38;;
62071;SDS011;48031;48.542;13.232;2023-02-28T16:56:56;13.43;;;7.45;;
62071;SDS011;48031;48.542;13.232;2023-02-28T17:00:57;11.55;;;6.78;;
62071;SDS011;48031;48.542;13.232;2023-02-28T17:05:00;13.30;;;7.60;;
62071;SDS011;48031;48.542;13.232;2023-02-28T17:09:02;15.18;;;8.13;;
62071;SDS011;48031;48.542;13.232;2023-02-28T17:13:04;17.13;;;7.20;;
62071;SDS011;48031;48.542;13.232;2023-02-28T17:17:17;17.00;;;8.55;;
62071;SDS011;48031;48.542;13.232;2023-02-28T17:21:21;12.27;;;7.20;;
62071;SDS011;48031;48.542;13.232;2023-02-28T17:25:23;13.07;;;7.45;;
62071;SDS011;48031;48.542;13.232;2023-02-28T17:29:25;15.27;;;7.47;;
62071;SDS011;48031;48.542;13.232;2023-02-28T17:33:27;17.70;;;8.02;;
62071;SDS011;48031;48.542;13.232;2023-02-28T17:37:28;14.85;;;7.43;;
62071;SDS011;48031;48.542;13.232;2023-02-28T17:41:30;16.35;;;8.45;;
62071;SDS011;48031;48.542;13.232;2023-02-28T17:45:32;17.92;;;8.98;;
62071;SDS011;48031;48.542;13.232;2023-02-28T17:49:36;15.35;;;8.48;;
62071;SDS011;48031;48.542;13.232;2023-02-28T17:53:37;18.10;;;9.27;;
62071;SDS011;48031;48.542;13.232;2023-02-28T17:57:39;16.17;;;8.40;;
62071;SDS011;48031;48.542;13.232;2023-02-28T18:01:43;16.25;;;8.02;;
62071;SDS011;48031;48.542;13.232;2023-02-28T18:05:45;20.08;;;9.18;;
62071;SDS011;48031;48.542;13.232;2023-02-28T18:09:46;15.82;;;8.20;;
62071;SDS011;48031;48.542;13.232;2023-02-28T18:13:49;20.55;;;8.82;;
62071;SDS011;48031;48.542;13.232;2023-02-28T18:17:52;17.55;;;8.57;;
62071;SDS011;48031;48.542;13.232;2023-02-28T18:21:54;18.40;;;9.43;;
62071;SDS011;48031;48.542;13.232;2023-02-28T18:25:56;19.23;;;9.35;;
62071;SDS011;48031;48.542;13.232;2023-02-28T18:29:59;15.90;;;9.25;;
62071;SDS011;48031;48.542;13.232;2023-02-28T18:34:00;16.67;;;9.00;;
62071;SDS011;48031;48.542;13.232;2023-02-28T18:38:03;15.27;;;8.27;;
62071;SDS011;48031;48.542;13.232;2023-02-28T18:42:11;18.92;;;9.55;;
62071;SDS011;48031;48.542;13.232;2023-02-28T18:46:14;16.13;;;7.68;;
62071;SDS011;48031;48.542;13.232;2023-02-28T18:50:18;15.30;;;8.30;;
62071;SDS011;48031;48.542;13.232;2023-02-28T18:54:20;16.60;;;7.95;;
62071;SDS011;48031;48.542;13.232;2023-02-28T18:58:22;15.10;;;8.52;;
62071;SDS011;48031;48.542;13.232;2023-02-28T19:02:24;16.65;;;8.20;;
62071;SDS011;48031;48.542;13.232;2023-02-28T19:06:26;15.93;;;8.45;;
62071;SDS011;48031;48.542;13.232;2023-02-28T19:10:30;13.88;;;7.82;;
62071;SDS011;48031;48.542;13.232;2023-02-28T19:14:32;20.10;;;9.27;;
62071;SDS011;48031;48.542;13.232;2023-02-28T19:18:34;17.38;;;8.80;;
62071;SDS011;48031;48.542;13.232;2023-02-28T19:22:36;15.82;;;8.82;;
62071;SDS011;48031;48.542;13.232;2023-02-28T19:26:38;13.10;;;7.05;;
62071;SDS011;48031;48.542;13.232;2023-02-28T19:30:45;17.52;;;8.43;;
62071;SDS011;48031;48.542;13.232;2023-02-28T19:34:48;16.38;;;8.60;;
62071;SDS011;48031;48.542;13.232;2023-02-28T19:38:50;17.05;;;8.43;;
62071;SDS011;48031;48.542;13.232;2023-02-28T19:42:51;14.05;;;7.30;;
62071;SDS011;48031;48.542;13.232;2023-02-28T19:46:53;14.55;;;7.60;;
62071;SDS011;48031;48.542;13.232;2023-02-28T19:50:59;18.00;;;8.50;;
62071;SDS011;48031;48.542;13.232;2023-02-28T19:55:06;19.45;;;9.55;;
62071;SDS011;48031;48.542;13.232;2023-02-28T19:59:08;12.52;;;7.22;;
62071;SDS011;48031;48.542;13.232;2023-02-28T20:03:26;12.25;;;7.07;;
62071;SDS011;48031;48.542;13.232;2023-02-28T20:07:28;17.10;;;8.52;;
62071;SDS011;48031;48.542;13.232;2023-02-28T20:11:29;17.05;;;8.50;;
62071;SDS011;48031;48.542;13.232;2023-02-28T20:15:31;16.52;;;8.15;;
62071;SDS011;48031;48.542;13.232;2023-02-28T20:19:34;13.57;;;6.72;;
62071;SDS011;48031;48.542;13.232;2023-02-28T20:23:39;17.73;;;9.13;;
62071;SDS011;48031;48.542;13.232;2023-02-28T20:27:41;14.02;;;7.35;;
62071;SDS011;48031;48.542;13.232;2023-02-28T20:31:44;17.60;;;8.90;;
62071;SDS011;48031;48.542;13.232;2023-02-28T20:35:45;18.25;;;9.13;;
62071;SDS011;48031;48.542;13.232;2023-02-28T20:39:47;17.00;;;8.55;;
62071;SDS011;48031;48.542;13.232;2023-02-28T20:43:53;16.98;;;9.20;;
62071;SDS011;48031;48.542;13.232;2023-02-28T20:47:58;18.50;;;10.48;;
62071;SDS011;48031;48.542;13.232;2023-02-28T20:52:00;17.08;;;8.80;;
62071;SDS011;48031;48.542;13.232;2023-02-28T20:56:04;20.08;;;9.27;;
62071;SDS011;48031;48.542;13.232;2023-02-28T21:00:06;12.85;;;6.70;;
62071;SDS011;48031;48.542;13.232;2023-02-28T21:04:09;17.70;;;8.52;;
62071;SDS011;48031;48.542;13.232;2023-02-28T21:08:11;18.05;;;9.38;;
62071;SDS011;48031;48.542;13.232;2023-02-28T21:12:13;16.92;;;9.00;;
62071;SDS011;48031;48.542;13.232;2023-02-28T21:16:15;15.30;;;8.13;;
62071;SDS011;48031;48.542;13.232;2023-02-28T21:20:19;12.82;;;7.35;;
62071;SDS011;48031;48.542;13.232;2023-02-28T21:24:24;12.05;;;7.18;;
62071;SDS011;48031;48.542;13.232;2023-02-28T21:28:25;15.10;;;8.15;;
62071;SDS011;48031;48.542;13.232;2023-02-28T21:32:27;8.40;;;4.82;;
62071;SDS011;48031;48.542;13.232;2023-02-28T21:36:30;13.80;;;6.57;;
62071;SDS011;48031;48.542;13.232;2023-02-28T21:40:33;12.07;;;6.90;;
62071;SDS011;48031;48.542;13.232;2023-02-28T21:44:35;9.43;;;5.43;;
62071;SDS011;48031;48.542;13.232;2023-02-28T21:48:37;7.53;;;4.15;;
62071;SDS011;48031;48.542;13.232;2023-02-28T21:52:39;8.57;;;4.78;;
62071;SDS011;48031;48.542;13.232;2023-02-28T21:56:42;6.13;;;3.83;;
62071;SDS011;48031;48.542;13.232;2023-02-28T22:00:43;6.30;;;4.30;;
62071;SDS011;48031;48.542;13.232;2023-02-28T22:04:46;6.65;;;3.40;;
62071;SDS011;48031;48.542;13.232;2023-02-28T22:08:49;14.73;;;7.40;;
62071;SDS011;48031;48.542;13.232;2023-02-28T22:12:54;9.25;;;5.90;;
62071;SDS011;48031;48.542;13.232;2023-02-28T22:16:55;10.05;;;5.45;;
62071;SDS011;48031;48.542;13.232;2023-02-28T22:20:58;12.35;;;6.20;;
62071;SDS011;48031;48.542;13.232;2023-02-28T22:25:00;6.97;;;4.45;;
62071;SDS011;48031;48.542;13.232;2023-02-28T22:29:01;9.80;;;4.72;;
62071;SDS011;48031;48.542;13.232;2023-02-28T22:33:04;14.43;;;7.53;;
62071;SDS011;48031;48.542;13.232;2023-02-28T22:37:06;12.60;;;6.70;;
62071;SDS011;48031;48.542;13.232;2023-02-28T22:41:08;15.43;;;7.97;;
62071;SDS011;48031;48.542;13.232;2023-02-28T22:45:12;16.73;;;8.90;;
62071;SDS011;48031;48.542;13.232;2023-02-28T22:49:13;13.95;;;6.03;;
62071;SDS011;48031;48.542;13.232;2023-02-28T22:53:15;14.55;;;7.68;;
62071;SDS011;48031;48.542;13.232;2023-02-28T22:57:18;14.55;;;7.65;;
62071;SDS011;48031;48.542;13.232;2023-02-28T23:01:20;14.75;;;7.78;;
62071;SDS011;48031;48.542;13.232;2023-02-28T23:05:24;16.25;;;7.95;;
62071;SDS011;48031;48.542;13.232;2023-02-28T23:09:26;14.95;;;7.25;;
62071;SDS011;48031;48.542;13.232;2023-02-28T23:13:28;15.32;;;7.82;;
62071;SDS011;48031;48.542;13.232;2023-02-28T23:17:30;15.27;;;7.80;;
62071;SDS011;48031;48.542;13.232;2023-02-28T23:21:32;13.10;;;6.45;;
62071;SDS011;48031;48.542;13.232;2023-02-28T23:25:37;13.38;;;7.22;;
62071;SDS011;48031;48.542;13.232;2023-02-28T23:29:40;10.98;;;6.03;;
62071;SDS011;48031;48.542;13.232;2023-02-28T23:33:42;15.48;;;7.28;;
62071;SDS011;48031;48.542;13.232;2023-02-28T23:37:44;15.18;;;7.38;;
62071;SDS011;48031;48.542;13.232;2023-02-28T23:41:46;14.68;;;7.30;;
62071;SDS011;48031;48.542;13.232;2023-02-28T23:45:54;14.00;;;6.78;;
62071;SDS011;48031;48.542;13.232;2023-02-28T23:49:57;16.50;;;8.55;;
62071;SDS011;48031;48.542;13.232;2023-02-28T23:53:58;14.68;;;7.38;;
62071;SDS011;48031;48.542;13.232;2023-02-28T23:58:03;14.63;;;7.75;;
